Time;durP1;ratioP1;P1;durP2;ratioP2;P2;SDS_P1;SDS_P2;PMS_P1;PMS_P2;Temp;Humidity;BMP_temperature;BMP_pressure;BME280_temperature;BME280_humidity;BME280_pressure;Samples;Min_cycle;Max_cycle;Signal;HPM_P1;HPM_P2
2022/01/03 00:00:41;;;;;;;2.28;1.30;;;10.00;99.90;;;;;;4986991;28;20029;-47
2022/01/03 00:03:11;;;;;;;2.50;1.30;;;10.00;99.90;;;;;;4994292;28;20077;-46
2022/01/03 00:05:37;;;;;;;1.95;1.25;;;10.00;99.90;;;;;;4995732;28;20030;-46
2022/01/03 00:08:05;;;;;;;1.83;1.20;;;10.20;99.90;;;;;;4996053;28;20341;-46
2022/01/03 00:10:33;;;;;;;2.33;1.10;;;10.10;99.90;;;;;;4997622;28;20120;-46
2022/01/03 00:12:59;;;;;;;1.20;1.08;;;10.10;99.90;;;;;;5002537;28;20081;-46
2022/01/03 00:15:25;;;;;;;2.08;1.33;;;10.10;99.90;;;;;;4992775;28;20052;-47
2022/01/03 00:17:53;;;;;;;2.78;1.58;;;10.10;99.90;;;;;;4998467;28;20033;-46
2022/01/03 00:20:20;;;;;;;2.10;1.10;;;10.10;99.90;;;;;;4994373;28;20106;-47
2022/01/03 00:23:03;;;;;;;3.60;1.48;;;10.10;99.90;;;;;;4997732;28;20411;-46
2022/01/03 00:25:29;;;;;;;1.60;1.20;;;10.10;99.90;;;;;;4996875;28;20498;-46
2022/01/03 00:27:58;;;;;;;1.50;1.00;;;10.10;99.90;;;;;;4999378;28;20175;-46
2022/01/03 00:30:24;;;;;;;;;;;10.10;99.90;;;;;;4997141;28;20030;-46
2022/01/03 00:32:51;;;;;;;1.77;1.42;;;10.10;99.90;;;;;;4995400;28;19932;-46
2022/01/03 00:35:18;;;;;;;2.42;1.33;;;10.20;99.90;;;;;;4994724;28;20026;-47
2022/01/03 00:37:45;;;;;;;3.45;1.60;;;10.10;99.90;;;;;;5003647;28;20061;-46
2022/01/03 00:40:13;;;;;;;2.63;1.25;;;10.10;99.90;;;;;;5007313;28;20147;-46
2022/01/03 00:42:39;;;;;;;2.37;1.33;;;10.10;99.90;;;;;;5002727;28;20510;-46
2022/01/03 00:45:05;;;;;;;1.40;1.30;;;10.10;99.90;;;;;;4991988;28;20510;-46
2022/01/03 00:47:33;;;;;;;2.33;1.25;;;10.10;99.90;;;;;;5000208;28;20038;-46
2022/01/03 00:50:03;;;;;;;5.83;1.40;;;10.20;99.90;;;;;;4996496;28;20036;-46
2022/01/03 00:52:28;;;;;;;1.30;1.20;;;10.10;99.90;;;;;;4998743;28;20090;-46
2022/01/03 00:54:54;;;;;;;2.47;1.20;;;10.10;99.90;;;;;;4997100;28;20182;-46
2022/01/03 00:57:24;;;;;;;2.97;1.05;;;10.10;99.90;;;;;;4996326;28;20038;-46
2022/01/03 00:59:59;;;;;;;2.10;1.35;;;10.10;99.90;;;;;;5009789;28;20514;-46
2022/01/03 01:02:27;;;;;;;1.00;1.00;;;10.10;99.90;;;;;;4996577;28;20092;-47
2022/01/03 01:04:55;;;;;;;2.17;1.25;;;10.10;99.90;;;;;;4995457;28;20079;-46
2022/01/03 01:07:23;;;;;;;6.07;1.40;;;10.10;99.90;;;;;;5000412;28;20738;-46
2022/01/03 01:09:51;;;;;;;1.42;1.00;;;10.10;99.90;;;;;;4998969;28;20049;-46
2022/01/03 01:12:18;;;;;;;1.92;1.70;;;10.10;99.90;;;;;;4994393;28;20481;-46
2022/01/03 01:14:45;;;;;;;2.75;1.50;;;10.10;99.90;;;;;;5002856;28;20156;-47
2022/01/03 01:17:11;;;;;;;4.07;1.30;;;10.10;99.90;;;;;;4994707;28;20073;-46
2022/01/03 01:19:37;;;;;;;1.30;1.20;;;10.10;99.90;;;;;;4995386;28;20106;-46
2022/01/03 01:22:03;;;;;;;1.55;0.88;;;10.10;99.90;;;;;;4997892;28;20040;-46
2022/01/03 01:24:34;;;;;;;1.42;1.02;;;10.00;99.90;;;;;;4998801;28;20026;-46
2022/01/03 01:48:12;;;;;;;3.50;1.30;;;10.00;99.90;;;;;;4995454;28;20060;-48
2022/01/03 01:50:40;;;;;;;1.20;0.88;;;9.90;99.90;;;;;;4991311;28;20034;-48
2022/01/03 01:53:07;;;;;;;0.93;0.90;;;9.90;99.90;;;;;;4993238;28;20475;-48
2022/01/03 01:55:33;;;;;;;3.55;1.13;;;9.90;99.90;;;;;;4989496;28;20041;-48
2022/01/03 01:58:36;;;;;;;1.90;1.10;;;9.90;99.90;;;;;;4987979;28;20041;-48
2022/01/03 02:01:06;;;;;;;1.48;1.13;;;9.90;99.90;;;;;;4936227;28;20626;-48
2022/01/03 02:04:17;;;;;;;1.60;1.23;;;9.90;99.90;;;;;;4998381;28;20075;-48
2022/01/03 02:06:47;;;;;;;1.40;0.88;;;9.90;99.90;;;;;;4937930;28;20105;-48
2022/01/03 02:09:40;;;;;;;1.15;1.15;;;9.90;99.90;;;;;;5003274;28;20558;-48
2022/01/03 02:12:14;;;;;;;3.33;1.05;;;9.90;99.90;;;;;;5015946;28;20434;-48
2022/01/03 02:14:40;;;;;;;1.65;1.20;;;9.90;99.90;;;;;;5015886;28;20060;-48
2022/01/03 02:17:06;;;;;;;2.72;0.93;;;9.80;99.90;;;;;;4998751;28;20030;-48
2022/01/03 02:19:37;;;;;;;3.88;1.10;;;9.80;99.90;;;;;;5012854;28;20033;-48
2022/01/03 02:22:03;;;;;;;4.05;1.00;;;9.80;99.90;;;;;;5015237;28;20033;-48
2022/01/03 02:24:29;;;;;;;3.47;1.10;;;9.80;99.90;;;;;;5016583;28;20059;-48
2022/01/03 02:26:55;;;;;;;2.33;1.48;;;9.80;99.90;;;;;;5014744;28;20041;-48
2022/01/03 02:29:21;;;;;;;4.75;1.40;;;9.80;99.90;;;;;;4978282;28;20116;-48
2022/01/03 02:31:47;;;;;;;0.98;0.90;;;9.80;99.90;;;;;;5010606;28;20041;-48
2022/01/03 02:34:13;;;;;;;2.05;0.90;;;9.80;99.90;;;;;;5015463;28;20092;-48
2022/01/03 02:36:44;;;;;;;0.80;0.80;;;9.80;99.90;;;;;;5013961;28;20045;-48
2022/01/03 02:39:10;;;;;;;0.85;0.80;;;9.80;99.90;;;;;;4996181;28;20049;-48
2022/01/03 02:41:36;;;;;;;2.38;1.20;;;9.80;99.90;;;;;;5015018;28;20014;-48
2022/01/03 02:44:02;;;;;;;1.95;0.80;;;9.80;99.90;;;;;;4997010;28;20179;-48
2022/01/03 02:46:27;;;;;;;1.65;1.00;;;9.80;99.90;;;;;;5014057;28;20491;-48
2022/01/03 02:48:53;;;;;;;2.25;1.17;;;9.80;99.90;;;;;;5014079;28;20550;-48
2022/01/03 02:51:19;;;;;;;3.05;1.30;;;9.80;99.90;;;;;;5013156;28;20112;-48
2022/01/03 02:53:45;;;;;;;4.05;0.90;;;9.80;99.90;;;;;;4996520;28;20037;-49
2022/01/03 02:56:11;;;;;;;1.23;0.80;;;9.80;99.90;;;;;;5012732;28;20039;-48
2022/01/03 02:58:36;;;;;;;2.72;1.38;;;9.80;99.90;;;;;;5007748;28;20038;-48
2022/01/03 03:01:03;;;;;;;1.00;1.00;;;9.80;99.90;;;;;;5017173;28;20485;-48
2022/01/03 03:03:29;;;;;;;1.25;1.00;;;9.80;99.90;;;;;;5010259;28;20030;-48
2022/01/03 03:05:55;;;;;;;2.05;0.90;;;9.80;99.90;;;;;;5013907;28;20497;-48
2022/01/03 03:08:21;;;;;;;3.38;1.20;;;9.80;99.90;;;;;;5017290;28;20056;-48
2022/01/03 03:10:46;;;;;;;3.38;1.23;;;9.80;99.90;;;;;;5011487;28;20040;-48
2022/01/03 03:13:13;;;;;;;3.83;1.17;;;9.80;99.90;;;;;;5017072;28;20046;-48
2022/01/03 03:15:39;;;;;;;1.08;0.80;;;9.80;99.90;;;;;;4975095;28;20123;-48
2022/01/03 03:18:05;;;;;;;1.88;1.00;;;9.70;99.90;;;;;;5013309;28;20037;-48
2022/01/03 03:20:33;;;;;;;2.95;1.10;;;9.80;99.90;;;;;;5017372;28;20410;-48
2022/01/03 03:23:00;;;;;;;2.83;1.60;;;9.70;99.90;;;;;;5014644;28;20026;-48
2022/01/03 03:25:29;;;;;;;3.65;1.17;;;9.70;99.90;;;;;;4993936;28;20109;-48
2022/01/03 03:28:01;;;;;;;3.05;0.80;;;9.70;99.90;;;;;;5019819;28;20033;-48
2022/01/03 03:30:31;;;;;;;1.95;1.17;;;9.80;99.90;;;;;;5016303;28;20044;-48
2022/01/03 03:33:08;;;;;;;1.75;1.20;;;9.70;99.90;;;;;;5012495;28;20036;-48
2022/01/03 03:35:35;;;;;;;1.23;0.90;;;9.70;99.90;;;;;;4982534;28;20053;-48
2022/01/03 03:38:01;;;;;;;0.95;0.95;;;9.80;99.90;;;;;;5014907;28;20037;-48
2022/01/03 03:40:27;;;;;;;5.00;1.33;;;9.80;99.90;;;;;;5014415;28;20383;-48
2022/01/03 03:42:53;;;;;;;1.95;1.30;;;9.70;99.90;;;;;;5010540;28;20034;-48
2022/01/03 03:45:19;;;;;;;3.67;1.10;;;9.70;99.90;;;;;;4998769;28;20034;-48
2022/01/03 03:47:45;;;;;;;1.63;1.08;;;9.70;99.90;;;;;;5014803;28;20103;-48
2022/01/03 03:50:11;;;;;;;2.40;1.00;;;9.70;99.90;;;;;;5013173;28;20033;-48
2022/01/03 03:52:37;;;;;;;3.65;1.00;;;9.70;99.90;;;;;;5011432;28;20037;-48
2022/01/03 03:55:04;;;;;;;2.67;1.20;;;9.70;99.90;;;;;;4992128;28;20057;-48
2022/01/03 03:57:30;;;;;;;1.27;0.70;;;9.70;99.90;;;;;;5003078;28;20029;-48
2022/01/03 03:59:56;;;;;;;1.50;0.70;;;9.70;99.90;;;;;;4997783;28;20033;-48
2022/01/03 04:02:22;;;;;;;1.38;0.77;;;9.70;99.90;;;;;;4995797;28;20139;-48
2022/01/03 04:04:48;;;;;;;1.92;1.00;;;9.70;99.90;;;;;;5014404;28;20025;-48
2022/01/03 04:07:14;;;;;;;2.42;0.90;;;9.70;99.90;;;;;;4991389;28;20033;-48
2022/01/03 04:09:40;;;;;;;1.27;1.17;;;9.70;99.90;;;;;;4995227;28;20040;-48
2022/01/03 04:12:06;;;;;;;2.63;1.52;;;9.60;99.90;;;;;;5014456;28;20029;-48
2022/01/03 04:14:32;;;;;;;5.18;1.27;;;9.70;99.90;;;;;;5007164;28;20044;-48
2022/01/03 04:16:58;;;;;;;0.80;0.80;;;9.70;99.90;;;;;;4981332;28;20068;-48
2022/01/03 04:19:24;;;;;;;1.02;0.90;;;9.60;99.90;;;;;;4993381;28;20329;-48
2022/01/03 04:21:50;;;;;;;5.47;1.67;;;9.60;99.90;;;;;;4994446;28;20643;-48
2022/01/03 04:24:15;;;;;;;1.10;0.90;;;9.60;99.90;;;;;;5013378;28;20025;-48
2022/01/03 04:26:43;;;;;;;3.38;1.30;;;9.60;99.90;;;;;;5011024;28;20501;-48
2022/01/03 04:29:08;;;;;;;2.85;1.00;;;9.60;99.90;;;;;;4978901;28;20128;-48
2022/01/03 04:31:34;;;;;;;4.22;0.98;;;9.60;99.90;;;;;;5010552;28;20041;-48
2022/01/03 04:34:00;;;;;;;3.00;0.77;;;9.60;99.90;;;;;;4993300;28;20057;-48
2022/01/03 04:36:27;;;;;;;3.25;0.98;;;9.60;99.90;;;;;;5014015;28;20040;-48
2022/01/03 04:38:53;;;;;;;1.23;0.98;;;9.60;99.90;;;;;;5006282;28;20279;-48
2022/01/03 04:41:19;;;;;;;3.45;0.95;;;9.50;99.90;;;;;;4992995;28;20056;-48
2022/01/03 04:43:45;;;;;;;2.67;0.90;;;9.50;99.90;;;;;;5015881;28;20029;-48
2022/01/03 04:46:12;;;;;;;2.25;0.85;;;9.50;99.90;;;;;;4994486;28;20037;-49
2022/01/03 04:48:38;;;;;;;2.33;1.10;;;9.60;99.90;;;;;;5008450;28;20026;-48
2022/01/03 04:51:05;;;;;;;2.47;1.15;;;9.50;99.90;;;;;;5013175;28;20048;-48
2022/01/03 04:53:33;;;;;;;2.55;1.30;;;9.50;99.90;;;;;;5011484;28;20427;-48
2022/01/03 04:55:59;;;;;;;1.15;0.93;;;9.50;99.90;;;;;;5013012;28;20497;-48
2022/01/03 04:58:25;;;;;;;1.88;1.05;;;9.50;99.90;;;;;;5010168;28;20055;-48
2022/01/03 05:00:51;;;;;;;2.17;0.88;;;9.50;99.90;;;;;;5006623;28;20107;-48
2022/01/03 05:03:18;;;;;;;3.20;1.20;;;9.50;99.90;;;;;;4994924;28;20033;-48
2022/01/03 05:05:43;;;;;;;3.20;1.38;;;9.50;99.90;;;;;;5012798;28;20060;-49
2022/01/03 05:08:09;;;;;;;2.20;1.23;;;9.50;99.90;;;;;;5011839;28;20033;-48
2022/01/03 05:10:35;;;;;;;3.50;1.77;;;9.40;99.90;;;;;;5012042;28;20034;-48
2022/01/03 05:13:01;;;;;;;2.53;1.00;;;9.40;99.90;;;;;;5014952;28;20053;-48
2022/01/03 05:15:27;;;;;;;1.92;1.00;;;9.50;99.90;;;;;;4993231;28;20033;-48
2022/01/03 05:17:53;;;;;;;1.60;0.98;;;9.40;99.90;;;;;;4994369;28;20037;-48
2022/01/03 05:20:19;;;;;;;1.45;1.00;;;9.40;99.90;;;;;;4994583;28;20038;-48
2022/01/03 05:22:45;;;;;;;1.65;0.80;;;9.30;99.90;;;;;;5011411;28;20022;-49
2022/01/03 05:25:11;;;;;;;2.80;1.02;;;9.30;99.90;;;;;;5012355;28;20033;-48
2022/01/03 05:27:40;;;;;;;1.33;0.70;;;9.40;99.90;;;;;;5013657;28;20117;-48
2022/01/03 05:30:07;;;;;;;2.05;0.85;;;9.30;99.90;;;;;;4992377;28;20107;-48
2022/01/03 05:32:33;;;;;;;4.00;1.33;;;9.30;99.90;;;;;;5006938;28;20797;-48
2022/01/03 05:34:59;;;;;;;2.08;0.90;;;9.30;99.90;;;;;;5007985;28;20029;-48
2022/01/03 05:37:25;;;;;;;1.20;0.88;;;9.30;99.90;;;;;;4991503;28;20462;-48
2022/01/03 05:39:51;;;;;;;4.97;1.17;;;9.30;99.90;;;;;;5008504;28;20025;-48
2022/01/03 05:42:17;;;;;;;3.38;1.10;;;9.30;99.90;;;;;;4993246;28;20029;-48
2022/01/03 05:44:43;;;;;;;7.18;1.08;;;9.30;99.90;;;;;;4976249;28;20552;-48
2022/01/03 05:47:09;;;;;;;2.20;1.15;;;9.20;99.90;;;;;;5012041;28;20053;-48
2022/01/03 05:49:35;;;;;;;2.83;1.00;;;9.20;99.90;;;;;;5008299;28;20037;-48
2022/01/03 05:52:01;;;;;;;2.30;1.23;;;9.20;99.90;;;;;;5008750;28;20454;-48
2022/01/03 05:54:27;;;;;;;2.55;1.10;;;9.20;99.90;;;;;;4992153;28;20453;-48
2022/01/03 05:56:52;;;;;;;1.35;0.85;;;9.20;99.90;;;;;;5010035;28;20030;-48
2022/01/03 05:59:18;;;;;;;2.55;0.90;;;9.20;99.90;;;;;;5009277;28;20088;-48
2022/01/03 06:01:45;;;;;;;6.68;1.30;;;9.10;99.90;;;;;;5006474;28;20961;-48
2022/01/03 06:04:21;;;;;;;1.80;1.05;;;9.10;99.90;;;;;;4995954;28;20037;-48
2022/01/03 06:06:58;;;;;;;5.43;2.35;;;9.10;99.90;;;;;;5005959;28;20072;-48
2022/01/03 06:09:25;;;;;;;4.65;2.15;;;9.10;99.90;;;;;;4994052;28;20048;-48
2022/01/03 06:11:52;;;;;;;13.35;5.43;;;9.10;99.90;;;;;;5011201;28;20026;-48
2022/01/03 06:14:20;;;;;;;19.13;7.22;;;9.00;99.90;;;;;;5010416;28;20205;-48
2022/01/03 06:16:48;;;;;;;23.50;10.55;;;9.00;99.90;;;;;;5010581;28;20506;-48
2022/01/03 06:19:15;;;;;;;13.27;8.05;;;9.00;99.90;;;;;;4980407;28;20033;-49
2022/01/03 06:21:42;;;;;;;7.07;1.95;;;9.00;99.90;;;;;;4994225;28;20502;-48
2022/01/03 06:24:12;;;;;;;5.05;1.60;;;8.90;99.90;;;;;;5007400;28;20320;-48
2022/01/03 06:26:41;;;;;;;1.83;1.17;;;8.90;99.90;;;;;;4998300;28;20033;-48
2022/01/03 06:29:08;;;;;;;2.90;1.27;;;8.80;99.90;;;;;;4977605;28;20041;-48
2022/01/03 06:31:33;;;;;;;2.45;1.00;;;8.80;99.90;;;;;;4990530;28;20040;-48
2022/01/03 06:34:00;;;;;;;1.20;0.80;;;8.80;99.90;;;;;;5014665;28;20033;-48
2022/01/03 06:36:26;;;;;;;3.92;1.10;;;8.80;99.90;;;;;;4993453;28;21198;-48
2022/01/03 06:38:52;;;;;;;2.80;0.82;;;8.80;99.90;;;;;;4997206;28;20398;-48
2022/01/03 06:41:17;;;;;;;2.97;0.95;;;8.80;99.90;;;;;;5010712;28;20030;-48
2022/01/03 06:43:43;;;;;;;5.15;1.08;;;8.80;99.90;;;;;;5011656;28;20415;-48
2022/01/03 06:46:09;;;;;;;2.05;0.95;;;8.80;99.90;;;;;;5011667;28;20056;-48
2022/01/03 06:48:35;;;;;;;3.35;1.10;;;8.80;99.90;;;;;;5009866;28;20088;-48
2022/01/03 06:51:01;;;;;;;5.22;1.27;;;8.80;99.90;;;;;;5002927;28;20072;-48
2022/01/03 06:53:27;;;;;;;2.85;0.95;;;8.70;99.90;;;;;;4993335;28;20506;-48
2022/01/03 06:55:53;;;;;;;4.10;1.52;;;8.80;99.90;;;;;;4993177;28;20037;-48
2022/01/03 06:58:19;;;;;;;3.80;1.33;;;8.70;99.90;;;;;;5013484;28;20441;-48
2022/01/03 07:00:45;;;;;;;1.20;1.02;;;8.70;99.90;;;;;;5018503;28;20029;-48
2022/01/03 07:03:11;;;;;;;2.38;1.45;;;8.70;99.90;;;;;;4994528;28;21532;-48
2022/01/03 07:05:39;;;;;;;1.88;0.90;;;8.70;99.90;;;;;;5003518;28;20516;-48
2022/01/03 07:08:06;;;;;;;3.65;1.20;;;8.70;99.90;;;;;;5015655;28;20018;-48
2022/01/03 07:10:32;;;;;;;2.42;1.10;;;8.70;99.90;;;;;;5019577;28;20029;-48
2022/01/03 07:12:59;;;;;;;3.28;1.30;;;8.70;99.90;;;;;;5000513;28;20029;-48
2022/01/03 07:20:55;;;;;;;2.80;1.58;;;8.70;99.90;;;;;;5012001;28;20064;-48
2022/01/03 07:23:22;;;;;;;1.83;0.95;;;8.70;99.90;;;;;;5015546;28;20038;-48
2022/01/03 07:25:49;;;;;;;3.60;1.50;;;8.70;99.90;;;;;;4998335;28;20072;-48
2022/01/03 07:28:16;;;;;;;2.85;1.17;;;8.70;99.90;;;;;;4996430;28;20514;-48
2022/01/03 07:30:41;;;;;;;4.72;1.55;;;8.70;99.90;;;;;;4997125;28;20029;-48
2022/01/03 07:33:08;;;;;;;6.22;1.50;;;8.70;99.90;;;;;;5017604;28;20033;-48
2022/01/03 07:35:35;;;;;;;6.03;0.88;;;8.60;99.90;;;;;;5002545;28;20917;-48
2022/01/03 07:38:02;;;;;;;3.90;1.48;;;8.70;99.90;;;;;;5015967;28;20105;-49
2022/01/03 07:40:29;;;;;;;3.95;1.20;;;8.70;99.90;;;;;;5016805;28;20033;-48
2022/01/03 07:42:55;;;;;;;4.22;1.20;;;8.70;99.90;;;;;;5015107;28;20037;-48
2022/01/03 07:45:21;;;;;;;1.40;0.95;;;8.70;99.90;;;;;;5016071;28;20028;-48
2022/01/03 07:47:46;;;;;;;3.08;0.90;;;8.70;99.90;;;;;;5017197;28;20042;-48
2022/01/03 07:50:12;;;;;;;3.20;1.02;;;8.70;99.90;;;;;;5015307;28;20036;-48
2022/01/03 07:52:38;;;;;;;3.47;0.95;;;8.70;99.90;;;;;;5016322;28;20445;-48
2022/01/03 07:55:07;;;;;;;1.60;0.90;;;8.60;99.90;;;;;;5015247;28;20104;-48
2022/01/03 07:57:33;;;;;;;1.58;0.90;;;8.60;99.90;;;;;;5015252;28;20171;-48
2022/01/03 07:59:59;;;;;;;5.45;1.20;;;8.60;99.90;;;;;;5000923;28;20030;-48
2022/01/03 08:02:25;;;;;;;3.33;1.10;;;8.60;99.90;;;;;;5012747;28;20538;-48
2022/01/03 08:04:51;;;;;;;4.05;1.13;;;8.70;99.90;;;;;;5016810;28;20114;-48
2022/01/03 08:07:17;;;;;;;1.65;1.20;;;8.60;99.90;;;;;;5016110;28;20052;-48
2022/01/03 08:09:42;;;;;;;2.72;1.00;;;8.60;99.90;;;;;;5003251;28;22275;-48
2022/01/03 08:12:09;;;;;;;4.03;1.55;;;8.60;99.90;;;;;;5000009;28;20029;-48
2022/01/03 08:14:34;;;;;;;4.30;1.30;;;8.60;99.90;;;;;;5003793;28;20040;-48
2022/01/03 08:17:00;;;;;;;3.95;0.90;;;8.60;99.90;;;;;;5015162;28;20651;-48
2022/01/03 08:19:26;;;;;;;1.70;1.00;;;8.60;99.90;;;;;;5016112;28;20029;-48
2022/01/03 08:21:53;;;;;;;2.72;1.10;;;8.60;99.90;;;;;;4998851;28;20045;-48
2022/01/03 08:24:20;;;;;;;5.80;1.10;;;8.70;99.90;;;;;;5015335;28;20033;-48
2022/01/03 08:26:46;;;;;;;4.70;1.40;;;8.70;99.90;;;;;;4998109;28;20029;-48
2022/01/03 08:29:13;;;;;;;2.83;1.00;;;8.70;99.90;;;;;;5010683;28;20071;-48
2022/01/03 08:31:46;;;;;;;2.80;0.90;;;8.80;99.90;;;;;;4997959;28;20172;-49
2022/01/03 08:34:12;;;;;;;2.95;1.05;;;8.80;99.90;;;;;;5014862;28;20029;-48
2022/01/03 08:36:38;;;;;;;3.80;1.00;;;8.80;99.90;;;;;;4998383;28;20030;-48
2022/01/03 08:39:05;;;;;;;2.30;0.80;;;8.80;99.90;;;;;;5000222;28;20102;-48
2022/01/03 08:41:32;;;;;;;5.55;1.20;;;8.80;99.90;;;;;;5012712;28;20029;-48
2022/01/03 08:43:58;;;;;;;2.80;0.95;;;8.80;99.90;;;;;;4999329;28;20144;-47
2022/01/03 08:46:24;;;;;;;2.22;0.95;;;8.90;99.90;;;;;;5000135;28;20223;-48
2022/01/03 08:48:52;;;;;;;3.33;1.35;;;8.90;99.90;;;;;;5014764;28;20033;-48
2022/01/03 08:51:18;;;;;;;3.40;1.20;;;9.00;99.90;;;;;;5014844;28;20459;-48
2022/01/03 08:53:44;;;;;;;3.28;1.30;;;9.00;99.90;;;;;;5011662;28;20087;-48
2022/01/03 08:56:13;;;;;;;4.25;1.10;;;9.00;99.90;;;;;;4997181;28;20040;-48
2022/01/03 08:58:41;;;;;;;3.10;1.20;;;9.00;99.90;;;;;;5017502;28;20506;-48
2022/01/03 09:01:07;;;;;;;1.67;1.30;;;9.00;99.90;;;;;;4994453;28;20026;-48
2022/01/03 09:03:32;;;;;;;3.22;1.40;;;9.00;99.90;;;;;;4999458;28;20029;-48
2022/01/03 09:05:59;;;;;;;1.48;0.73;;;9.00;99.90;;;;;;5000160;28;20021;-48
2022/01/03 09:08:26;;;;;;;3.35;1.10;;;9.00;99.90;;;;;;5013759;28;20033;-48
2022/01/03 09:10:52;;;;;;;3.30;1.60;;;9.00;99.90;;;;;;4990765;28;20444;-48
2022/01/03 09:13:19;;;;;;;1.58;1.00;;;9.00;99.90;;;;;;4994426;28;20038;-48
2022/01/03 09:15:46;;;;;;;4.83;1.40;;;9.00;99.90;;;;;;5012852;28;20035;-48
2022/01/03 09:18:17;;;;;;;2.45;1.17;;;9.10;99.90;;;;;;5002791;28;20030;-48
2022/01/03 09:20:43;;;;;;;2.28;0.70;;;9.10;99.90;;;;;;5008336;28;20029;-48
2022/01/03 09:23:23;;;;;;;2.65;0.93;;;9.20;99.90;;;;;;5018653;28;20021;-49
2022/01/03 09:28:49;;;;;;;0.77;0.77;;;9.20;99.90;;;;;;5018336;28;20513;-48
2022/01/03 09:31:16;;;;;;;2.10;1.17;;;9.20;99.90;;;;;;4998085;28;20052;-48
2022/01/03 09:34:14;;;;;;;1.50;0.90;;;9.20;99.90;;;;;;5033184;28;20030;-48
2022/01/03 09:50:55;;;;;;;4.03;1.27;;;9.50;99.90;;;;;;5003909;28;20040;-46
2022/01/03 09:53:22;;;;;;;2.75;1.20;;;9.50;99.90;;;;;;4995875;28;20036;-46
2022/01/03 09:55:49;;;;;;;1.90;1.10;;;9.60;99.90;;;;;;4980427;28;20104;-46
2022/01/03 09:58:15;;;;;;;1.67;0.80;;;9.60;99.90;;;;;;4992477;28;20030;-46
2022/01/03 10:00:41;;;;;;;1.58;0.90;;;9.60;99.90;;;;;;4991033;28;20571;-46
2022/01/03 10:03:07;;;;;;;3.38;1.20;;;9.60;99.90;;;;;;4975501;28;20022;-46
2022/01/03 10:05:33;;;;;;;3.92;1.52;;;9.60;99.90;;;;;;4975824;28;20058;-46
2022/01/03 10:07:59;;;;;;;2.60;1.17;;;9.70;99.90;;;;;;4967068;28;20460;-46
2022/01/03 10:10:27;;;;;;;4.25;1.10;;;9.70;99.90;;;;;;4977854;28;20046;-47
2022/01/03 10:12:54;;;;;;;1.10;0.73;;;9.70;99.90;;;;;;4974010;28;20039;-47
2022/01/03 10:15:19;;;;;;;2.25;0.98;;;9.80;99.90;;;;;;4972272;28;20034;-46
2022/01/03 10:17:47;;;;;;;4.82;1.00;;;9.80;99.90;;;;;;4977115;28;20366;-46
2022/01/03 10:20:13;;;;;;;1.80;0.90;;;9.80;99.90;;;;;;4978359;28;20038;-47
2022/01/03 10:22:41;;;;;;;1.75;0.88;;;9.80;99.90;;;;;;4980014;28;20033;-46
2022/01/03 10:25:23;;;;;;;1.48;0.80;;;9.80;99.90;;;;;;4968491;28;20454;-46
2022/01/03 10:27:53;;;;;;;1.48;0.70;;;9.80;99.90;;;;;;4976028;28;20444;-46
2022/01/03 10:30:37;;;;;;;4.22;0.88;;;9.90;99.90;;;;;;4970273;28;20065;-46
2022/01/03 10:33:05;;;;;;;4.13;1.10;;;9.80;99.90;;;;;;5002644;28;20064;-46
2022/01/03 10:36:00;;;;;;;4.60;1.10;;;9.90;99.90;;;;;;5000803;28;21559;-46
2022/01/03 10:38:47;;;;;;;2.63;1.48;;;9.90;99.90;;;;;;4967201;28;20053;-46
2022/01/03 10:41:15;;;;;;;2.67;1.17;;;9.90;99.90;;;;;;4995897;28;20018;-46
2022/01/03 10:43:52;;;;;;;4.53;1.25;;;9.90;99.90;;;;;;4989442;28;20036;-46
2022/01/03 10:46:25;;;;;;;1.33;0.77;;;9.90;99.90;;;;;;4999096;28;20044;-46
2022/01/03 10:48:53;;;;;;;1.88;0.70;;;10.00;99.90;;;;;;4998914;28;20832;-46
2022/01/03 10:51:27;;;;;;;3.17;1.13;;;10.00;99.90;;;;;;4993877;28;20180;-46
2022/01/03 10:53:54;;;;;;;1.17;0.77;;;10.00;99.90;;;;;;4990497;28;20042;-46
2022/01/03 10:56:20;;;;;;;1.77;0.93;;;10.00;99.90;;;;;;4973955;28;20887;-46
2022/01/03 10:58:45;;;;;;;3.30;1.00;;;10.00;99.90;;;;;;4991714;28;20072;-46
2022/01/03 11:01:32;;;;;;;1.40;0.90;;;10.00;99.90;;;;;;4975965;28;20048;-46
2022/01/03 11:04:00;;;;;;;1.15;0.90;;;10.00;99.90;;;;;;4974814;28;21549;-47
2022/01/03 11:11:45;;;;;;;1.33;0.73;;;10.10;99.90;;;;;;4995720;28;20127;-46
2022/01/03 11:14:33;;;;;;;1.90;0.90;;;10.10;99.90;;;;;;4993280;28;20034;-46
2022/01/03 11:17:02;;;;;;;2.53;0.68;;;10.20;99.90;;;;;;4976629;28;20110;-46
2022/01/03 11:19:38;;;;;;;1.95;0.98;;;10.10;99.90;;;;;;4973491;28;20606;-46
2022/01/03 11:22:04;;;;;;;2.17;1.17;;;10.10;99.90;;;;;;4991908;28;20105;-46
2022/01/03 11:24:30;;;;;;;3.88;1.40;;;10.10;99.90;;;;;;4990415;28;20045;-46
2022/01/03 11:26:56;;;;;;;2.15;0.80;;;10.10;99.90;;;;;;4989263;28;20026;-46
2022/01/03 11:29:22;;;;;;;3.50;1.13;;;10.20;99.90;;;;;;4992015;28;20080;-46
2022/01/03 11:31:54;;;;;;;4.00;1.33;;;10.20;99.90;;;;;;4995771;28;20044;-46
2022/01/03 11:34:25;;;;;;;3.72;1.10;;;10.20;99.90;;;;;;4995463;28;20026;-46
2022/01/03 11:36:52;;;;;;;1.55;1.13;;;10.20;99.90;;;;;;4974969;28;20036;-46
2022/01/03 11:39:21;;;;;;;7.50;1.17;;;10.20;99.90;;;;;;4990673;28;20080;-46
2022/01/03 11:41:47;;;;;;;1.50;0.77;;;10.20;99.90;;;;;;4992406;28;20029;-46
2022/01/03 11:44:15;;;;;;;6.88;4.70;;;10.20;99.90;;;;;;4974078;28;20022;-46
2022/01/03 11:46:43;;;;;;;1.65;0.82;;;10.20;99.90;;;;;;4989882;28;20079;-47
2022/01/03 11:49:09;;;;;;;1.70;0.80;;;10.20;99.90;;;;;;4992074;28;20061;-47
2022/01/03 11:51:36;;;;;;;1.52;1.27;;;10.20;99.90;;;;;;5016265;28;20561;-46
2022/01/03 11:54:03;;;;;;;3.00;1.15;;;10.20;99.90;;;;;;5017471;28;20030;-46
2022/01/03 11:56:32;;;;;;;3.03;0.80;;;10.20;99.90;;;;;;5015542;28;20473;-47
2022/01/03 12:04:40;;;;;;;3.72;1.13;;;10.20;99.90;;;;;;5007333;28;20114;-47
2022/01/03 12:07:08;;;;;;;3.03;0.93;;;10.20;99.90;;;;;;5009878;28;20419;-47
2022/01/03 12:09:35;;;;;;;1.15;0.85;;;10.20;99.90;;;;;;5016876;28;20056;-47
2022/01/03 12:12:01;;;;;;;2.05;1.00;;;10.20;99.90;;;;;;5014511;28;20548;-47
2022/01/03 12:14:40;;;;;;;3.92;0.90;;;10.20;99.90;;;;;;5009537;28;20037;-46
2022/01/03 12:17:08;;;;;;;4.07;1.15;;;10.20;99.90;;;;;;5007374;28;20034;-46
2022/01/03 12:19:46;;;;;;;6.43;1.50;;;10.20;99.90;;;;;;5013738;28;20402;-46
2022/01/03 12:22:22;;;;;;;5.72;1.13;;;10.10;99.90;;;;;;5011751;28;20747;-46
2022/01/03 12:24:52;;;;;;;4.53;1.33;;;10.20;99.90;;;;;;5010733;28;20080;-47
2022/01/03 12:27:26;;;;;;;5.18;0.85;;;10.20;99.90;;;;;;5014458;28;20034;-46
2022/01/03 12:29:54;;;;;;;3.70;1.10;;;10.10;99.90;;;;;;5011316;28;20635;-46
2022/01/03 12:32:34;;;;;;;1.42;0.88;;;10.10;99.90;;;;;;5012182;28;20073;-47
2022/01/03 12:35:18;;;;;;;3.15;1.13;;;10.20;99.90;;;;;;5007475;28;20124;-46
2022/01/03 12:37:54;;;;;;;1.58;0.80;;;10.20;99.90;;;;;;5011394;28;20033;-46
2022/01/03 12:40:27;;;;;;;1.83;0.82;;;10.10;99.90;;;;;;5011298;28;20033;-46
2022/01/03 12:42:55;;;;;;;3.45;0.90;;;10.10;99.90;;;;;;5013732;28;20025;-46
2022/01/03 12:45:30;;;;;;;3.60;1.10;;;10.10;99.90;;;;;;5002761;28;20025;-46
2022/01/03 12:48:08;;;;;;;2.83;1.25;;;10.10;99.90;;;;;;5012270;28;20077;-47
2022/01/03 17:15:13;;;;;;;2.20;0.88;;;9.40;99.90;;;;;;4997606;28;20064;-49
2022/01/03 17:17:39;;;;;;;2.55;0.95;;;9.30;99.90;;;;;;5006854;28;20086;-50
2022/01/03 17:20:05;;;;;;;1.67;1.42;;;9.30;99.90;;;;;;5010615;28;20033;-49
2022/01/03 17:22:31;;;;;;;1.95;1.00;;;9.30;99.90;;;;;;5027590;28;20058;-49
2022/01/03 17:24:56;;;;;;;0.85;0.85;;;9.30;99.90;;;;;;5030581;28;20029;-49
2022/01/03 17:27:22;;;;;;;2.22;1.20;;;9.30;99.90;;;;;;5035383;28;20606;-50
2022/01/03 17:29:49;;;;;;;1.90;1.20;;;9.30;99.90;;;;;;5039308;28;20089;-49
2022/01/03 17:32:15;;;;;;;1.58;1.02;;;9.30;99.90;;;;;;5036165;28;20124;-49
2022/01/03 17:34:41;;;;;;;1.35;1.00;;;9.20;99.90;;;;;;5025258;28;20031;-49
2022/01/03 17:37:09;;;;;;;3.40;1.20;;;9.20;99.90;;;;;;5029364;28;20040;-50
2022/01/03 17:39:35;;;;;;;1.95;1.17;;;9.20;99.90;;;;;;5025879;28;21845;-49
2022/01/03 17:42:01;;;;;;;3.08;1.17;;;9.20;99.90;;;;;;5032152;28;20492;-46
2022/01/03 17:44:27;;;;;;;1.05;1.00;;;9.20;99.90;;;;;;5005001;28;20033;-46
2022/01/03 17:46:55;;;;;;;1.25;1.00;;;9.20;99.90;;;;;;5022469;28;20033;-47
2022/01/03 17:49:21;;;;;;;3.38;1.15;;;9.20;99.90;;;;;;5029188;28;20041;-47
2022/01/03 17:51:47;;;;;;;1.55;0.88;;;9.20;99.90;;;;;;5034810;28;20397;-46
2022/01/03 17:54:12;;;;;;;1.70;1.10;;;9.20;99.90;;;;;;5017350;28;20090;-47
2022/01/03 17:56:38;;;;;;;1.38;1.33;;;9.20;99.90;;;;;;5026400;28;20128;-46
2022/01/03 17:59:04;;;;;;;2.25;1.20;;;9.20;99.90;;;;;;5027366;28;20074;-47
2022/01/03 18:01:29;;;;;;;1.17;1.02;;;9.10;99.90;;;;;;5026248;28;20048;-46
2022/01/03 18:03:56;;;;;;;5.22;1.50;;;9.10;99.90;;;;;;5025879;28;20020;-47
2022/01/03 18:06:22;;;;;;;3.80;1.30;;;9.10;99.90;;;;;;5029412;28;20148;-46
2022/01/03 18:08:49;;;;;;;1.73;1.00;;;9.10;99.90;;;;;;5007733;28;20670;-47
2022/01/03 18:11:15;;;;;;;4.57;1.65;;;9.10;99.90;;;;;;5026654;28;20159;-47
2022/01/03 18:13:42;;;;;;;2.38;1.20;;;9.10;99.90;;;;;;5007195;28;20029;-46
2022/01/03 18:16:08;;;;;;;1.70;1.45;;;9.10;99.90;;;;;;5030546;28;20095;-47
2022/01/03 18:18:34;;;;;;;1.33;1.23;;;9.10;99.90;;;;;;5007862;28;20061;-46